createdAt,value
2019-01-17T00:00:39.641Z,312.77
2019-01-17T00:01:39.638Z,312.42
2019-01-17T00:02:39.639Z,312.48
2019-01-17T00:03:39.621Z,312.37
2019-01-17T00:04:39.633Z,312.66
2019-01-17T00:05:39.610Z,312.73
2019-01-17T00:06:39.576Z,312.41
2019-01-17T00:07:39.561Z,312.79
2019-01-17T00:08:39.555Z,312.57
2019-01-17T00:09:39.540Z,313.01
2019-01-17T00:10:39.563Z,312.66
2019-01-17T00:11:39.618Z,312.72
2019-01-17T00:12:39.524Z,312.87
2019-01-17T00:13:39.520Z,312.84
2019-01-17T00:14:39.492Z,312.78
2019-01-17T00:15:39.500Z,312.97
2019-01-17T00:16:39.470Z,312.50
2019-01-17T00:17:39.459Z,312.55
2019-01-17T00:18:39.442Z,312.48
2019-01-17T00:19:39.434Z,312.96
2019-01-17T00:20:39.426Z,312.70
2019-01-17T00:21:39.431Z,312.88
2019-01-17T00:22:39.441Z,312.71
2019-01-17T00:23:39.404Z,312.37
2019-01-17T00:24:39.394Z,312.87
2019-01-17T00:25:39.379Z,312.83
2019-01-17T00:26:39.361Z,312.99
2019-01-17T00:27:39.348Z,312.82
2019-01-17T00:28:39.349Z,312.88
2019-01-17T00:29:39.324Z,312.88
2019-01-17T00:30:39.354Z,312.91
2019-01-17T00:31:39.314Z,312.88
2019-01-17T00:32:39.299Z,313.16
2019-01-17T00:33:39.313Z,312.97
2019-01-17T00:34:39.285Z,312.88
2019-01-17T00:35:39.280Z,312.73
2019-01-17T00:36:39.253Z,312.30
2019-01-17T00:37:39.247Z,312.86
2019-01-17T00:38:39.225Z,312.61
2019-01-17T00:39:39.252Z,313.25
2019-01-17T00:40:39.209Z,312.88
2019-01-17T00:41:39.200Z,312.41
2019-01-17T00:42:39.203Z,312.76
2019-01-17T00:43:39.185Z,313.13
2019-01-17T00:44:39.572Z,313.01
2019-01-17T00:45:39.162Z,312.44
2019-01-17T00:46:39.136Z,312.77
2019-01-17T00:47:39.145Z,312.95
2019-01-17T00:48:39.143Z,312.71
2019-01-17T00:49:39.150Z,312.70
2019-01-17T00:50:39.099Z,312.60
2019-01-17T00:51:39.085Z,313.01
2019-01-17T00:52:39.074Z,312.89
2019-01-17T00:53:39.072Z,312.40
2019-01-17T00:54:39.074Z,312.58
2019-01-17T00:55:39.101Z,312.62
2019-01-17T00:56:39.043Z,312.88
2019-01-17T00:57:39.035Z,312.57
2019-01-17T00:58:39.018Z,312.83
2019-01-17T00:59:38.999Z,313.22
2019-01-17T01:00:38.990Z,313.01
2019-01-17T01:01:39.014Z,312.73
2019-01-17T01:02:38.985Z,313.01
2019-01-17T01:03:38.981Z,313.35
2019-01-17T01:04:38.951Z,312.96
2019-01-17T01:05:38.943Z,312.83
2019-01-17T01:06:38.934Z,312.89
2019-01-17T01:07:38.939Z,312.95
2019-01-17T01:08:38.910Z,312.86
2019-01-17T01:09:38.898Z,312.99
2019-01-17T01:10:38.885Z,312.90
2019-01-17T01:11:38.906Z,312.90
2019-01-17T01:12:38.859Z,312.46
2019-01-17T01:13:38.852Z,312.40
2019-01-17T01:14:38.841Z,312.42
2019-01-17T01:15:38.835Z,312.65
2019-01-17T01:16:38.846Z,312.78
2019-01-17T01:17:38.837Z,312.52
2019-01-17T01:18:38.797Z,312.60
2019-01-17T01:19:38.783Z,312.70
2019-01-17T01:20:38.783Z,312.60
2019-01-17T01:21:38.778Z,312.46
2019-01-17T01:22:38.785Z,312.73
2019-01-17T01:23:38.737Z,312.91
2019-01-17T01:24:38.731Z,312.65
2019-01-17T01:25:38.719Z,313.08
2019-01-17T01:26:38.722Z,312.86
2019-01-17T01:27:38.706Z,313.10
2019-01-17T01:28:38.710Z,312.85
2019-01-17T01:29:38.680Z,312.40
2019-01-17T01:30:38.674Z,312.87
2019-01-17T01:31:38.654Z,312.92
2019-01-17T01:32:38.643Z,312.58
2019-01-17T01:33:38.660Z,312.85
2019-01-17T01:34:38.638Z,313.03
2019-01-17T01:35:38.618Z,312.49
2019-01-17T01:36:38.606Z,313.08
2019-01-17T01:37:38.585Z,312.79
2019-01-17T01:38:38.593Z,312.67
2019-01-17T01:39:38.598Z,312.62
2019-01-17T01:40:38.566Z,312.78
2019-01-17T01:41:38.560Z,312.75
2019-01-17T01:42:38.528Z,312.80
2019-01-17T01:43:38.516Z,312.75
2019-01-17T01:44:38.509Z,312.59
2019-01-17T01:45:38.527Z,312.66
2019-01-17T01:46:38.493Z,312.37
2019-01-17T01:47:38.486Z,312.85
2019-01-17T01:48:38.477Z,312.95
2019-01-17T01:49:38.468Z,312.64
2019-01-17T01:50:38.449Z,312.84
2019-01-17T01:51:38.469Z,312.91
2019-01-17T01:52:38.432Z,312.69
2019-01-17T01:53:38.420Z,312.70
2019-01-17T01:54:38.419Z,312.83
2019-01-17T01:55:38.396Z,312.52
2019-01-17T01:56:38.421Z,312.75
2019-01-17T01:57:38.395Z,312.66
2019-01-17T01:58:38.365Z,312.52
2019-01-17T01:59:38.359Z,312.66
2019-01-17T02:00:38.342Z,312.60
2019-01-17T02:01:38.347Z,312.77
2019-01-17T02:02:38.333Z,312.86
2019-01-17T02:03:38.310Z,312.69
2019-01-17T02:04:38.290Z,312.15
2019-01-17T02:05:38.286Z,312.83
2019-01-17T02:06:38.310Z,312.39
2019-01-17T02:07:38.281Z,312.58
2019-01-17T02:08:38.254Z,312.94
2019-01-17T02:09:38.232Z,312.83
2019-01-17T02:10:38.234Z,312.48
2019-01-17T02:11:38.222Z,312.73
2019-01-17T02:12:38.237Z,312.18
2019-01-17T02:13:38.213Z,312.56
2019-01-17T02:14:38.196Z,312.53
2019-01-17T02:15:38.173Z,312.44
2019-01-17T02:16:38.192Z,312.85
2019-01-17T02:17:38.158Z,312.29
2019-01-17T02:18:38.148Z,312.04
2019-01-17T02:19:38.146Z,312.63
2019-01-17T02:20:38.141Z,312.30
2019-01-17T02:21:38.112Z,313.06
2019-01-17T02:22:38.119Z,312.98
2019-01-17T02:23:38.097Z,312.55
2019-01-17T02:24:38.085Z,312.90
2019-01-17T02:25:38.079Z,312.51
2019-01-17T02:26:38.057Z,312.49
2019-01-17T02:27:38.121Z,312.53
2019-01-17T02:28:38.060Z,312.53
2019-01-17T02:29:38.042Z,312.64
2019-01-17T02:30:38.121Z,312.62
2019-01-17T02:31:38.011Z,312.42
2019-01-17T02:32:38.015Z,312.77
2019-01-17T02:33:37.991Z,312.01
2019-01-17T02:34:37.969Z,312.66
2019-01-17T02:35:37.982Z,312.50
2019-01-17T02:36:37.946Z,312.27
2019-01-17T02:37:37.964Z,312.19
2019-01-17T02:38:37.936Z,312.50
2019-01-17T02:39:37.918Z,312.55
2019-01-17T02:40:37.899Z,312.83
2019-01-17T02:41:37.892Z,312.34
2019-01-17T02:42:37.901Z,312.09
2019-01-17T02:43:37.879Z,312.46
2019-01-17T02:44:39.211Z,312.78
2019-01-17T02:45:37.858Z,312.53
2019-01-17T02:46:37.836Z,312.36
2019-01-17T02:47:37.839Z,312.85
2019-01-17T02:48:37.813Z,312.43
2019-01-17T02:49:37.807Z,312.34
2019-01-17T02:50:37.800Z,312.61
2019-01-17T02:51:37.785Z,312.42
2019-01-17T02:52:37.802Z,312.47
2019-01-17T02:53:37.766Z,312.61
2019-01-17T02:54:37.743Z,312.55
2019-01-17T02:55:37.743Z,312.56
2019-01-17T02:56:37.735Z,312.48
2019-01-17T02:57:37.743Z,312.41
2019-01-17T02:58:37.703Z,312.24
2019-01-17T02:59:37.697Z,312.54
2019-01-17T03:00:37.680Z,312.44
2019-01-17T03:01:37.675Z,312.60
2019-01-17T03:02:37.726Z,312.50
2019-01-17T03:03:37.656Z,312.57
2019-01-17T03:04:37.655Z,312.49
2019-01-17T03:05:37.639Z,312.50
2019-01-17T03:06:37.622Z,312.85
2019-01-17T03:07:37.599Z,312.75
2019-01-17T03:08:37.679Z,312.36
2019-01-17T03:09:37.593Z,312.45
2019-01-17T03:10:37.578Z,312.74
2019-01-17T03:11:37.586Z,312.58
2019-01-17T03:12:37.601Z,311.90
2019-01-17T03:13:37.541Z,312.75
2019-01-17T03:14:37.539Z,312.33
2019-01-17T03:15:37.560Z,312.07
2019-01-17T03:16:37.510Z,312.13
2019-01-17T03:17:37.504Z,312.27
2019-01-17T03:18:37.484Z,312.08
2019-01-17T03:19:37.467Z,312.45
2019-01-17T03:20:37.470Z,311.86
2019-01-17T03:21:37.491Z,312.41
2019-01-17T03:22:37.467Z,312.27
2019-01-17T03:23:37.436Z,312.19
2019-01-17T03:24:42.972Z,312.00
2019-01-17T03:25:38.422Z,312.03
2019-01-17T03:26:37.402Z,312.13
2019-01-17T03:27:37.401Z,311.91
2019-01-17T03:28:37.386Z,312.10
2019-01-17T03:29:37.376Z,312.12
2019-01-17T03:30:37.366Z,312.52
2019-01-17T03:31:37.348Z,312.43
2019-01-17T03:32:37.378Z,312.44
2019-01-17T03:33:37.315Z,312.55
2019-01-17T03:34:37.337Z,312.36
2019-01-17T03:35:37.321Z,312.38
2019-01-17T03:36:37.301Z,311.96
2019-01-17T03:37:37.289Z,312.13
2019-01-17T03:38:37.303Z,312.38
2019-01-17T03:39:37.260Z,312.15
2019-01-17T03:40:37.248Z,312.33
2019-01-17T03:41:37.238Z,312.09
2019-01-17T03:42:37.269Z,312.45
2019-01-17T03:43:37.222Z,312.48
2019-01-17T03:44:37.206Z,312.17
2019-01-17T03:45:37.187Z,312.07
2019-01-17T03:46:37.197Z,312.32
2019-01-17T03:47:37.176Z,312.30
2019-01-17T03:48:37.207Z,312.41
2019-01-17T03:49:37.160Z,311.94
2019-01-17T03:50:37.140Z,312.48
2019-01-17T03:51:37.125Z,312.25
2019-01-17T03:52:37.121Z,311.94
2019-01-17T03:53:37.100Z,312.10
2019-01-17T03:54:37.141Z,311.98
2019-01-17T03:55:37.092Z,312.24
2019-01-17T03:56:37.106Z,312.74
2019-01-17T03:57:37.077Z,312.56
2019-01-17T03:58:37.065Z,312.07
2019-01-17T03:59:37.075Z,311.89
2019-01-17T04:00:37.041Z,312.96
2019-01-17T04:01:37.026Z,312.45
2019-01-17T04:02:37.002Z,312.52
2019-01-17T04:03:37.001Z,311.94
2019-01-17T04:04:36.983Z,311.98
2019-01-17T04:05:36.998Z,312.21
2019-01-17T04:06:36.970Z,312.20
2019-01-17T04:07:36.963Z,312.69
2019-01-17T04:08:36.943Z,311.87
2019-01-17T04:09:36.939Z,312.44
2019-01-17T04:10:36.916Z,312.74
2019-01-17T04:11:36.929Z,312.12
2019-01-17T04:12:36.914Z,312.32
2019-01-17T04:13:36.922Z,312.43
2019-01-17T04:14:36.887Z,312.65
2019-01-17T04:15:36.878Z,312.70
2019-01-17T04:16:36.850Z,312.13
2019-01-17T04:17:36.840Z,312.70
2019-01-17T04:18:36.838Z,312.66
2019-01-17T04:19:36.872Z,312.05
2019-01-17T04:20:36.819Z,312.45
2019-01-17T04:21:36.813Z,312.33
2019-01-17T04:22:36.788Z,312.40
2019-01-17T04:23:36.784Z,312.63
2019-01-17T04:24:36.770Z,312.43
2019-01-17T04:25:36.773Z,312.89
2019-01-17T04:26:36.755Z,312.62
2019-01-17T04:27:36.748Z,312.75
2019-01-17T04:28:36.759Z,312.91
2019-01-17T04:29:36.715Z,313.00
2019-01-17T04:30:36.697Z,312.47
2019-01-17T04:31:36.719Z,312.83
2019-01-17T04:32:36.691Z,312.48
2019-01-17T04:33:36.685Z,312.88
2019-01-17T04:34:36.668Z,312.71
2019-01-17T04:35:36.662Z,312.35
2019-01-17T04:36:36.638Z,312.82
2019-01-17T04:37:36.647Z,312.87
2019-01-17T04:38:36.627Z,312.92
2019-01-17T04:39:36.606Z,312.73
2019-01-17T04:40:36.622Z,312.42
2019-01-17T04:41:36.616Z,313.04
2019-01-17T04:42:36.597Z,312.83
2019-01-17T04:43:36.555Z,313.02
2019-01-17T04:44:36.553Z,313.43
2019-01-17T04:45:36.551Z,313.48
2019-01-17T04:46:36.586Z,313.07
2019-01-17T04:47:36.521Z,313.38
2019-01-17T04:48:36.521Z,313.18
2019-01-17T04:49:36.503Z,313.16
2019-01-17T04:50:36.510Z,313.05
2019-01-17T04:51:36.528Z,313.45
2019-01-17T04:52:36.480Z,314.01
2019-01-17T04:53:36.489Z,313.69
2019-01-17T04:54:36.445Z,313.25
2019-01-17T04:55:36.430Z,314.00
2019-01-17T04:56:36.417Z,313.95
2019-01-17T04:57:36.432Z,314.21
2019-01-17T04:58:36.420Z,313.70
2019-01-17T04:59:36.399Z,314.11
2019-01-17T05:00:36.380Z,313.96
2019-01-17T05:01:36.383Z,313.48
2019-01-17T05:02:36.347Z,313.83
2019-01-17T05:03:36.369Z,314.07
2019-01-17T05:04:36.337Z,314.75
2019-01-17T05:05:36.340Z,314.14
2019-01-17T05:06:36.307Z,314.06
2019-01-17T05:07:36.301Z,313.54
2019-01-17T05:08:36.327Z,313.74
2019-01-17T05:09:36.287Z,313.87
2019-01-17T05:10:36.292Z,313.43
2019-01-17T05:11:36.267Z,313.23
2019-01-17T05:12:36.250Z,313.83
2019-01-17T05:13:36.244Z,313.63
2019-01-17T05:14:36.247Z,313.39
2019-01-17T05:15:36.212Z,313.96
2019-01-17T05:16:36.201Z,313.35
2019-01-17T05:17:36.193Z,313.58
2019-01-17T05:18:36.202Z,313.96
2019-01-17T05:19:36.207Z,313.43
2019-01-17T05:20:36.152Z,313.47
2019-01-17T05:21:36.139Z,313.57
2019-01-17T05:22:36.136Z,313.34
2019-01-17T05:23:36.153Z,313.56
2019-01-17T05:24:36.132Z,313.80
2019-01-17T05:25:36.147Z,313.40
2019-01-17T05:26:36.086Z,313.68
2019-01-17T05:27:36.086Z,313.18
2019-01-17T05:28:36.095Z,313.32
2019-01-17T05:29:36.059Z,313.75
2019-01-17T05:30:36.083Z,313.48
2019-01-17T05:31:36.067Z,313.06
2019-01-17T05:32:36.771Z,313.76
2019-01-17T05:33:36.026Z,314.07
2019-01-17T05:34:39.514Z,313.89
2019-01-17T05:35:36.023Z,313.76
2019-01-17T05:36:35.999Z,313.78
2019-01-17T05:37:35.984Z,313.38
2019-01-17T05:38:35.957Z,313.66
2019-01-17T05:39:35.948Z,313.77
2019-01-17T05:40:35.933Z,313.60
2019-01-17T05:41:35.947Z,313.43
2019-01-17T05:42:35.919Z,314.13
2019-01-17T05:43:35.910Z,313.45
2019-01-17T05:44:35.907Z,313.70
2019-01-17T05:45:35.898Z,314.04
2019-01-17T05:46:35.907Z,313.53
2019-01-17T05:47:35.868Z,313.90
2019-01-17T05:48:35.846Z,313.81
2019-01-17T05:49:35.845Z,313.72
2019-01-17T05:50:35.843Z,313.66
2019-01-17T05:51:35.841Z,313.61
2019-01-17T05:52:35.836Z,313.38
2019-01-17T05:53:35.796Z,313.74
2019-01-17T05:54:35.791Z,314.24
2019-01-17T05:55:35.787Z,313.93
2019-01-17T05:56:35.769Z,314.48
2019-01-17T05:57:35.759Z,313.75
2019-01-17T05:58:35.769Z,313.86
2019-01-17T05:59:35.726Z,313.81
2019-01-17T06:00:35.723Z,313.67
2019-01-17T06:01:35.712Z,314.05
2019-01-17T06:02:35.707Z,313.61
2019-01-17T06:03:35.687Z,313.56
2019-01-17T06:04:35.702Z,313.63
2019-01-17T06:05:35.672Z,313.65
2019-01-17T06:06:35.645Z,313.50
2019-01-17T06:07:35.635Z,313.44
2019-01-17T06:08:35.650Z,313.58
2019-01-17T06:09:35.647Z,313.35
2019-01-17T06:10:35.608Z,313.52
2019-01-17T06:11:35.602Z,314.08
2019-01-17T06:12:35.593Z,321.39
2019-01-17T06:13:35.588Z,320.72
2019-01-17T06:14:35.591Z,320.09
2019-01-17T06:15:35.561Z,314.72
2019-01-17T06:16:35.550Z,314.19
2019-01-17T06:17:35.541Z,316.12
2019-01-17T06:18:35.522Z,317.87
2019-01-17T06:19:35.542Z,316.72
2019-01-17T06:20:35.498Z,314.60
2019-01-17T06:21:35.490Z,314.13
2019-01-17T06:22:35.488Z,314.30
2019-01-17T06:23:35.470Z,313.98
2019-01-17T06:24:35.455Z,313.59
2019-01-17T06:25:35.492Z,313.73
2019-01-17T06:26:35.434Z,314.38
2019-01-17T06:27:35.491Z,313.50
2019-01-17T06:28:35.417Z,314.53
2019-01-17T06:29:35.409Z,314.11
2019-01-17T06:30:35.386Z,313.85
2019-01-17T06:31:35.403Z,313.39
2019-01-17T06:32:35.396Z,313.50
2019-01-17T06:33:35.349Z,313.62
2019-01-17T06:34:35.350Z,313.78
2019-01-17T06:35:35.371Z,313.62
2019-01-17T06:36:35.339Z,313.77
2019-01-17T06:37:35.372Z,314.38
2019-01-17T06:38:35.305Z,314.01
2019-01-17T06:39:35.287Z,314.30
2019-01-17T06:40:35.304Z,314.06
2019-01-17T06:41:35.298Z,314.38
2019-01-17T06:42:35.280Z,313.91
2019-01-17T06:43:35.239Z,314.18
2019-01-17T06:44:35.245Z,313.95
2019-01-17T06:45:35.223Z,313.79
2019-01-17T06:46:35.249Z,314.19
2019-01-17T06:47:35.210Z,314.00
2019-01-17T06:48:35.208Z,313.69
2019-01-17T06:49:35.189Z,314.32
2019-01-17T06:50:35.174Z,314.31
2019-01-17T06:51:35.197Z,314.10
2019-01-17T06:52:35.160Z,314.97
2019-01-17T06:53:35.142Z,316.01
2019-01-17T06:54:35.137Z,314.85
2019-01-17T06:55:35.122Z,315.37
2019-01-17T06:56:35.109Z,314.73
2019-01-17T06:57:35.132Z,313.89
2019-01-17T06:58:35.094Z,313.77
2019-01-17T06:59:35.085Z,313.85
2019-01-17T07:00:35.077Z,314.65
2019-01-17T07:01:35.062Z,313.83
2019-01-17T07:02:35.068Z,313.77
2019-01-17T07:03:35.054Z,313.54
2019-01-17T07:04:35.017Z,315.24
2019-01-17T07:05:35.005Z,314.83
2019-01-17T07:06:35.024Z,314.55
2019-01-17T07:07:34.994Z,313.90
2019-01-17T07:08:34.978Z,313.87
2019-01-17T07:09:34.970Z,313.96
2019-01-17T07:10:34.952Z,313.81
2019-01-17T07:11:34.953Z,313.63
2019-01-17T07:12:34.960Z,313.46
2019-01-17T07:13:34.924Z,314.45
2019-01-17T07:14:34.905Z,314.26
2019-01-17T07:15:34.903Z,315.22
2019-01-17T07:16:34.884Z,314.62
2019-01-17T07:17:34.886Z,314.68
2019-01-17T07:18:34.869Z,314.03
2019-01-17T07:19:34.893Z,315.06
2019-01-17T07:20:34.845Z,314.73
2019-01-17T07:21:34.885Z,313.84
2019-01-17T07:22:34.848Z,314.26
2019-01-17T07:23:34.803Z,313.84
2019-01-17T07:24:34.800Z,313.76
2019-01-17T07:25:40.860Z,313.99
2019-01-17T07:26:35.806Z,313.42
2019-01-17T07:27:34.781Z,313.41
2019-01-17T07:28:34.781Z,313.51
2019-01-17T07:29:34.736Z,313.54
2019-01-17T07:30:34.738Z,313.87
2019-01-17T07:31:34.794Z,313.95
2019-01-17T07:32:34.722Z,313.90
2019-01-17T07:33:34.747Z,313.70
2019-01-17T07:34:34.680Z,313.78
2019-01-17T07:35:34.684Z,314.05
2019-01-17T07:36:34.675Z,314.23
2019-01-17T07:37:34.673Z,313.90
2019-01-17T07:38:34.657Z,314.76
2019-01-17T07:39:35.578Z,314.08
2019-01-17T07:40:34.630Z,314.50
2019-01-17T07:41:34.656Z,314.05
2019-01-17T07:42:34.642Z,314.01
2019-01-17T07:43:34.586Z,314.10
2019-01-17T07:44:34.598Z,313.73
2019-01-17T07:45:34.572Z,314.30
2019-01-17T07:46:34.556Z,314.43
2019-01-17T07:47:34.538Z,314.76
2019-01-17T07:48:34.578Z,314.78
2019-01-17T07:49:34.524Z,314.86
2019-01-17T07:50:34.517Z,314.62
2019-01-17T07:51:34.503Z,314.19
2019-01-17T07:52:34.510Z,313.72
2019-01-17T07:53:34.485Z,314.20
2019-01-17T07:54:34.494Z,314.49
2019-01-17T07:55:34.465Z,314.58
2019-01-17T07:56:34.468Z,314.04
2019-01-17T07:57:34.439Z,314.48
2019-01-17T07:58:34.452Z,314.39
2019-01-17T07:59:34.418Z,314.88
2019-01-17T08:00:34.428Z,314.53
2019-01-17T08:01:34.383Z,315.03
2019-01-17T08:02:34.385Z,314.23
2019-01-17T08:03:34.408Z,314.06
2019-01-17T08:04:34.382Z,314.03
2019-01-17T08:05:34.357Z,314.95
2019-01-17T08:06:34.502Z,315.19
2019-01-17T08:07:34.364Z,314.94
2019-01-17T08:08:34.322Z,314.97
2019-01-17T08:09:34.318Z,314.84
2019-01-17T08:10:34.289Z,314.87
2019-01-17T08:11:34.281Z,314.65
2019-01-17T08:12:34.291Z,314.04
2019-01-17T08:13:34.249Z,314.65
2019-01-17T08:14:34.253Z,314.48
2019-01-17T08:15:34.244Z,315.04
2019-01-17T08:16:34.227Z,315.52
2019-01-17T08:17:34.233Z,316.28
2019-01-17T08:18:34.214Z,315.71
2019-01-17T08:19:34.207Z,314.91
2019-01-17T08:20:34.198Z,315.08
2019-01-17T08:21:34.185Z,314.46
2019-01-17T08:22:34.176Z,315.34
2019-01-17T08:23:34.629Z,314.79
2019-01-17T08:24:34.138Z,314.97
2019-01-17T08:25:34.125Z,314.59
2019-01-17T08:26:34.127Z,314.64
2019-01-17T08:27:34.133Z,314.36
2019-01-17T08:28:34.105Z,314.86
2019-01-17T08:29:34.097Z,314.89
2019-01-17T08:30:34.075Z,314.05
2019-01-17T08:31:34.063Z,313.97
2019-01-17T08:32:34.082Z,314.01
2019-01-17T08:33:34.046Z,314.01
2019-01-17T08:34:34.030Z,314.47
2019-01-17T08:35:34.018Z,314.57
2019-01-17T08:36:34.015Z,314.70
2019-01-17T08:37:34.022Z,315.01
2019-01-17T08:38:34.004Z,315.09
2019-01-17T08:39:33.982Z,314.99
2019-01-17T08:40:33.975Z,315.70
2019-01-17T08:41:34.006Z,315.17
2019-01-17T08:42:33.982Z,315.22
2019-01-17T08:43:33.928Z,315.26
2019-01-17T08:44:33.934Z,315.89
2019-01-17T08:45:33.910Z,315.04
2019-01-17T08:46:33.923Z,314.88
2019-01-17T08:47:33.940Z,314.91
2019-01-17T08:48:33.905Z,314.02
2019-01-17T08:49:33.876Z,314.58
2019-01-17T08:50:33.878Z,315.06
2019-01-17T08:51:33.852Z,315.27
2019-01-17T08:52:33.855Z,315.97
2019-01-17T08:53:33.904Z,315.45
2019-01-17T08:54:33.812Z,315.48
2019-01-17T08:55:33.819Z,315.10
2019-01-17T08:56:33.792Z,315.13
2019-01-17T08:57:33.781Z,314.67
2019-01-17T08:58:33.800Z,315.58
2019-01-17T08:59:33.795Z,315.24
2019-01-17T09:00:33.751Z,314.04
2019-01-17T09:01:33.752Z,314.64
2019-01-17T09:02:33.744Z,314.68
2019-01-17T09:03:33.740Z,314.17
2019-01-17T09:04:33.715Z,314.55
2019-01-17T09:05:33.701Z,314.04
2019-01-17T09:06:33.694Z,314.75
2019-01-17T09:07:33.683Z,313.81
2019-01-17T09:08:33.688Z,314.37
2019-01-17T09:09:33.648Z,314.24
2019-01-17T09:10:33.643Z,314.00
2019-01-17T09:11:33.639Z,314.19
2019-01-17T09:12:33.651Z,314.10
2019-01-17T09:13:33.638Z,314.46
2019-01-17T09:14:33.619Z,313.88
2019-01-17T09:15:33.649Z,314.31
2019-01-17T09:16:33.578Z,313.45
2019-01-17T09:17:33.578Z,313.69
2019-01-17T09:18:33.563Z,319.53
2019-01-17T09:19:33.559Z,315.68
2019-01-17T09:20:33.533Z,314.88
2019-01-17T09:21:33.543Z,314.52
2019-01-17T09:22:33.516Z,314.75
2019-01-17T09:23:33.502Z,314.19
2019-01-17T09:24:33.499Z,314.61
2019-01-17T09:25:33.480Z,315.17
2019-01-17T09:26:33.492Z,314.92
2019-01-17T09:27:33.450Z,314.59
2019-01-17T09:28:33.483Z,314.52
2019-01-17T09:29:33.466Z,314.45
2019-01-17T09:30:33.437Z,314.55
2019-01-17T09:31:33.443Z,314.92
2019-01-17T09:32:33.413Z,314.80
2019-01-17T09:33:33.409Z,314.93
2019-01-17T09:34:33.378Z,314.90
2019-01-17T09:35:33.365Z,315.23
2019-01-17T09:36:33.403Z,314.96
2019-01-17T09:37:33.354Z,314.74
2019-01-17T09:38:33.334Z,314.21
2019-01-17T09:39:33.328Z,313.86
2019-01-17T09:40:33.311Z,313.95
2019-01-17T09:41:33.295Z,314.03
2019-01-17T09:42:33.341Z,314.53
2019-01-17T09:43:33.294Z,314.81
2019-01-17T09:44:33.277Z,313.57
2019-01-17T09:45:33.271Z,314.05
2019-01-17T09:46:33.247Z,312.95
2019-01-17T09:47:33.244Z,313.25
2019-01-17T09:48:33.254Z,312.73
2019-01-17T09:49:33.215Z,312.57
2019-01-17T09:50:33.212Z,312.94
2019-01-17T09:51:33.198Z,313.35
2019-01-17T09:52:33.188Z,313.34
2019-01-17T09:53:33.201Z,312.31
2019-01-17T09:54:33.189Z,312.97
2019-01-17T09:55:33.168Z,312.90
2019-01-17T09:56:33.143Z,315.29
2019-01-17T09:57:33.130Z,315.66
2019-01-17T09:58:33.149Z,314.95
2019-01-17T09:59:33.103Z,313.33
2019-01-17T10:00:33.103Z,314.19
2019-01-17T10:01:33.106Z,315.80
2019-01-17T10:02:33.079Z,314.66
2019-01-17T10:03:33.098Z,313.36
2019-01-17T10:04:33.083Z,314.43
2019-01-17T10:05:33.046Z,314.26
2019-01-17T10:06:33.047Z,314.57
2019-01-17T10:07:33.023Z,313.88
2019-01-17T10:08:33.015Z,313.79
2019-01-17T10:09:33.026Z,314.74
2019-01-17T10:10:32.988Z,315.36
2019-01-17T10:11:32.991Z,315.00
2019-01-17T10:12:32.960Z,313.23
2019-01-17T10:13:32.955Z,314.45
2019-01-17T10:14:32.945Z,313.77
2019-01-17T10:15:32.935Z,313.92
2019-01-17T10:16:32.950Z,313.52
2019-01-17T10:17:32.915Z,312.87
2019-01-17T10:18:32.924Z,313.10
2019-01-17T10:19:32.886Z,312.49
2019-01-17T10:20:32.877Z,313.48
2019-01-17T10:21:32.891Z,313.23
2019-01-17T10:22:32.867Z,313.56
2019-01-17T10:23:32.849Z,313.26
2019-01-17T10:24:32.821Z,314.02
2019-01-17T10:25:32.817Z,314.48
2019-01-17T10:26:32.809Z,313.59
2019-01-17T10:27:32.821Z,313.31
2019-01-17T10:28:32.796Z,314.42
2019-01-17T10:29:32.778Z,314.57
2019-01-17T10:30:32.759Z,314.01
2019-01-17T10:31:32.775Z,313.56
2019-01-17T10:32:32.732Z,313.71
2019-01-17T10:33:32.740Z,313.62
2019-01-17T10:34:32.768Z,313.85
2019-01-17T10:35:32.708Z,312.58
2019-01-17T10:36:32.708Z,313.50
2019-01-17T10:37:32.695Z,314.41
2019-01-17T10:38:32.671Z,313.23
2019-01-17T10:39:32.654Z,313.56
2019-01-17T10:40:32.708Z,313.01
2019-01-17T10:41:32.646Z,313.02
2019-01-17T10:42:32.709Z,313.27
2019-01-17T10:43:32.611Z,313.25
2019-01-17T10:44:32.601Z,313.50
2019-01-17T10:45:32.588Z,313.79
2019-01-17T10:46:32.607Z,312.65
2019-01-17T10:47:32.577Z,313.68
2019-01-17T10:48:32.590Z,312.42
2019-01-17T10:49:32.562Z,313.03
2019-01-17T10:50:32.566Z,313.25
2019-01-17T10:51:32.535Z,312.21
2019-01-17T10:52:32.555Z,313.11
2019-01-17T10:53:32.511Z,312.39
2019-01-17T10:54:32.541Z,312.09
2019-01-17T10:55:32.501Z,311.70
2019-01-17T10:56:32.484Z,311.98
2019-01-17T10:57:32.476Z,312.36
2019-01-17T10:58:32.496Z,312.71
2019-01-17T10:59:32.470Z,311.93
2019-01-17T11:00:32.430Z,312.61
2019-01-17T11:01:32.433Z,311.72
2019-01-17T11:02:32.411Z,312.17
2019-01-17T11:03:32.394Z,313.37
2019-01-17T11:04:32.408Z,312.47
2019-01-17T11:05:32.378Z,313.06
2019-01-17T11:06:32.374Z,313.08
2019-01-17T11:07:32.362Z,312.17
2019-01-17T11:08:32.346Z,314.70
2019-01-17T11:09:32.337Z,316.53
2019-01-17T11:10:32.355Z,315.45
2019-01-17T11:11:32.298Z,313.81
2019-01-17T11:12:32.313Z,314.10
2019-01-17T11:13:32.293Z,314.11
2019-01-17T11:14:32.281Z,314.13
2019-01-17T11:15:32.255Z,312.98
2019-01-17T11:16:32.295Z,312.42
2019-01-17T11:17:32.242Z,313.65
2019-01-17T11:18:32.245Z,313.20
2019-01-17T11:19:32.242Z,313.44
2019-01-17T11:20:32.242Z,314.24
2019-01-17T11:21:32.199Z,314.28
2019-01-17T11:22:32.206Z,313.20
2019-01-17T11:23:32.172Z,312.66
2019-01-17T11:24:32.160Z,312.70
2019-01-17T11:25:32.148Z,311.85
2019-01-17T11:26:34.443Z,313.16
2019-01-17T11:27:32.172Z,312.94
2019-01-17T11:28:32.129Z,312.25
2019-01-17T11:29:32.109Z,312.57
2019-01-17T11:30:32.108Z,312.36
2019-01-17T11:31:32.094Z,312.64
2019-01-17T11:32:32.095Z,311.97
2019-01-17T11:33:32.102Z,313.25
2019-01-17T11:34:32.055Z,314.34
2019-01-17T11:35:32.050Z,313.23
2019-01-17T11:36:32.038Z,312.21
2019-01-17T11:37:32.028Z,312.37
2019-01-17T11:38:32.021Z,311.41
2019-01-17T11:39:32.042Z,312.09
2019-01-17T11:40:32.014Z,311.96
2019-01-17T11:41:32.697Z,312.00
2019-01-17T11:42:31.970Z,312.03
2019-01-17T11:43:31.950Z,312.46
2019-01-17T11:44:31.973Z,311.62
2019-01-17T11:45:31.941Z,313.08
2019-01-17T11:46:31.918Z,315.72
2019-01-17T11:47:31.916Z,314.80
2019-01-17T11:48:31.902Z,313.20
2019-01-17T11:49:31.929Z,312.54
2019-01-17T11:50:31.896Z,314.12
2019-01-17T11:51:31.888Z,313.16
2019-01-17T11:52:31.865Z,313.62
2019-01-17T11:53:31.854Z,313.33
2019-01-17T11:54:31.829Z,315.33
2019-01-17T11:55:31.869Z,314.35
2019-01-17T11:56:31.811Z,315.07
2019-01-17T11:57:31.808Z,314.75
2019-01-17T11:58:31.804Z,313.49
2019-01-17T11:59:31.852Z,313.03
2019-01-17T12:00:31.774Z,313.14
2019-01-17T12:01:31.789Z,314.86
2019-01-17T12:02:31.756Z,314.04
2019-01-17T12:03:31.745Z,313.85
2019-01-17T12:04:31.739Z,313.41
2019-01-17T12:05:31.731Z,312.01
2019-01-17T12:06:31.731Z,312.14
2019-01-17T12:07:31.686Z,312.75
2019-01-17T12:08:31.683Z,312.07
2019-01-17T12:09:31.665Z,312.17
2019-01-17T12:10:31.670Z,312.71
2019-01-17T12:11:31.680Z,312.58
2019-01-17T12:12:31.652Z,312.28
2019-01-17T12:13:31.669Z,313.28
2019-01-17T12:14:31.618Z,312.92
2019-01-17T12:15:31.605Z,312.50
2019-01-17T12:16:31.610Z,312.31
2019-01-17T12:17:31.612Z,312.44
2019-01-17T12:18:31.595Z,311.89
2019-01-17T12:19:31.557Z,312.31
2019-01-17T12:20:31.577Z,313.26
2019-01-17T12:21:31.539Z,312.74
2019-01-17T12:22:31.550Z,313.00
2019-01-17T12:23:31.550Z,312.72
2019-01-17T12:24:31.526Z,312.04
2019-01-17T12:25:31.535Z,312.05
2019-01-17T12:26:31.487Z,312.62
2019-01-17T12:27:31.478Z,312.63
2019-01-17T12:28:31.520Z,313.16